Station: Cairns Racecourse  

  Atmospheric Gas Attenuation - ITU Rec 676-11   ----------------- dB/100km -----------------
Date Time Temp RH % AH g/m3 Dew Point Wind Direction Speed kph Gust kph Barometer mB Rainfall Since 9am 24GHz 47GHz 76GHz 122GHz 134GHz 241GHz
10/05 17:20 25 79 18.19 21.1 20 26 1017.1 0 39.2 38.7 73.6 194.7 213.0 739.6
10/05 17:10 24.8 80 18.21 21.1 15 19 1017 0 39.3 38.8 73.9 195.4 213.8 742.6
10/05 17:00 24.6 81 18.23 21.1 17 28 1017.1 0 39.3 38.9 74.2 196.2 214.7 745.6
10/05 16:50 24.6 81 18.23 21.1 17 24 1017.1 0 39.3 38.9 74.2 196.2 214.7 745.6
10/05 16:40 24.7 80 18.11 21 24 28 1017.2 0 39.1 38.7 73.6 194.5 212.6 738.4
10/05 16:30 24.7 80 18.11 21 24 41 1017.2 0 39.1 38.7 73.6 194.5 212.6 738.4
10/05 16:20 24.9 79 18.08 21 30 37 1017 0 39.0 38.5 73.2 193.6 211.6 734.7
10/05 16:10 25 80 18.42 21.3 24 32 1017.1 0 39.7 39.1 74.7 197.5 216.5 751.8
10/05 16:00 25.5 78 18.47 21.4 20 35 1016.9 0 39.8 39.0 74.4 196.8 215.7 749.4
10/05 15:50 25.8 78 18.78 21.7 19 24 1016.7 0 40.4 39.4 75.6 199.9 219.5 762.7
10/05 15:40 25.8 77 18.54 21.5 24 32 1016.6 0 39.9 38.9 74.4 196.9 215.9 749.9
10/05 15:30 25.8 76 18.3 21.2 15 32 1016.7 0 39.4 38.5 73.3 193.9 212.3 737.4
10/05 15:20 25.8 76 18.3 21.2 13 20 1016.5 0 39.4 38.5 73.3 193.9 212.3 737.3
10/05 15:10 25.6 77 18.33 21.3 13 15 1016.4 0 39.5 38.6 73.7 194.8 213.3 740.8
10/05 15:00 25.6 77 18.33 21.3 19 30 1016.5 0 39.5 38.6 73.7 194.8 213.3 740.8
10/05 14:50 25.4 77 18.13 21.1 19 22 1016.5 0 39.1 38.4 72.9 192.8 210.8 732.3
10/05 14:40 25.6 80 19.05 21.9 15 20 1016.4 0 41.0 40.0 77.0 203.7 224.2 778.9
10/05 14:30 26.2 75 18.46 21.4 19 32 1016.5 0 39.7 38.6 73.7 194.9 213.5 741.8
10/05 14:20 26.2 75 18.46 21.4 22 28 1016.2 0 39.7 38.6 73.7 194.8 213.5 741.6
10/05 14:10 26.5 73 18.27 21.3 17 20 1016.2 0 39.2 38.1 72.5 191.7 209.8 728.9
10/05 14:00 26.5 71 17.77 20.8 20 33 1016.4 0 38.2 37.2 70.3 185.8 202.5 703.3
10/05 13:50 26.7 72 18.23 21.2 19 22 1016.4 0 39.1 38.0 72.1 190.8 208.7 725.0
10/05 13:40 27.3 69 18.06 21.1 22 28 1016.3 0 38.7 37.4 70.8 187.3 204.5 710.6
10/05 13:30 26.7 72 18.23 21.2 26 39 1016.6 0 39.1 38.0 72.2 190.8 208.7 725.1
10/05 13:20 27 70 18.02 21.1 22 35 1016.5 0 38.7 37.4 70.9 187.5 204.8 711.5
10/05 13:10 27.8 69 18.56 21.6 20 32 1016.6 0 39.7 38.1 72.6 192.0 210.5 731.6
10/05 13:00 27.8 66 17.75 20.9 24 39 1016.7 0 38.0 36.6 69.0 182.5 198.8 690.6
10/05 12:50 27.2 69 17.96 21 22 33 1016.7 0 38.5 37.3 70.5 186.4 203.4 706.7
10/05 12:40 27.4 71 18.68 21.7 19 24 1016.8 0 40.0 38.5 73.5 194.5 213.5 741.7
10/05 12:30 27.5 69 18.26 21.3 24 43 1017.1 0 39.1 37.7 71.6 189.3 207.0 719.3
10/05 12:20 27.3 69 18.06 21.1 32 35 1017.2 0 38.7 37.4 70.9 187.4 204.7 711.1
10/05 12:10 27.9 69 18.66 21.7 22 32 1017.4 0 39.9 38.2 73.0 193.1 211.8 736.1
10/05 12:00 27.9 67 18.12 21.4 24 39 1017.5 0 38.8 37.3 70.6 186.7 204.0 708.7
10/05 11:50 28.1 65 17.78 21.1 22 30 1017.5 0 38.0 36.6 68.9 182.2 198.5 689.8
10/05 11:40 27.6 70 18.62 21.6 22 33 1017.7 0 39.9 38.3 73.1 193.4 212.1 737.1
10/05 11:30 27.5 69 18.26 21.3 20 35 1018 0 39.1 37.7 71.6 189.4 207.2 719.8
10/05 11:20 27.6 69 18.36 21.4 19 28 1018 0 39.3 37.9 72.0 190.3 208.4 723.9
10/05 11:10 27.2 72 18.74 21.7 22 33 1018.1 0 40.1 38.7 74.1 195.9 215.1 747.4
10/05 11:00 26.7 73 18.48 21.5 20 37 1018.4 0 39.6 38.5 73.4 194.1 212.7 738.9
10/05 10:50 26.8 72 18.33 21.5 22 30 1018.5 0 39.3 38.2 72.6 192.1 210.2 730.3
10/05 10:40 26.7 75 18.98 21.9 19 24 1018.5 0 40.7 39.4 75.7 200.2 220.2 765.1
10/05 10:30 26.2 77 18.96 21.8 22 41 1018.7 0 40.7 39.6 76.1 201.3 221.4 769.2
10/05 10:20 25.5 80 18.94 21.8 19 24 1018.6 0 40.7 39.9 76.7 202.9 223.2 775.2
10/05 10:10 25.3 81 18.96 21.8 22 28 1018.7 0 40.8 40.1 77.0 203.7 224.1 778.4
10/05 10:00 24.8 83 18.89 21.7 19 35 1018.9 0 40.7 40.2 77.2 204.2 224.5 779.9
10/05 09:50 25.1 83 19.21 22 13 17 1018.8 0 41.4 40.6 78.4 207.5 228.6 794.0
10/05 09:40 25.2 83 19.32 22.1 17 20 1018.6 0 41.6 40.8 78.8 208.5 230.0 798.8
10/05 09:30 25 82 18.88 21.7 19 32 1018.8 0 40.7 40.1 77.0 203.6 223.8 777.2
10/05 09:20 25.1 82 18.98 21.8 22 26 1018.6 0 40.9 40.2 77.3 204.5 225.0 781.5
10/05 09:10 25.3 82 19.2 22 22 30 1018.4 0 41.3 40.5 78.2 206.7 227.8 791.1
10/05 09:00 25.3 81 18.96 21.8 22 37 1018.5 0 40.8 40.1 77.0 203.7 224.1 778.3
10/05 08:50 25.2 81 18.86 21.7 17 20 1018.2 0 40.6 39.9 76.6 202.7 222.8 773.8
10/05 08:40 25 83 19.11 21.9 20 28 1018 0 41.2 40.5 78.0 206.3 227.2 789.2
10/05 08:30 24.8 83 18.89 21.7 20 35 1017.9 0 40.7 40.1 77.2 204.1 224.4 779.3
10/05 08:20 24.6 85 19.13 21.9 13 20 1017.8 0 41.2 40.7 78.5 207.7 228.7 794.4
10/05 08:10 24.7 84 19.01 21.8 20 28 1017.6 0 41.0 40.4 77.8 205.8 226.5 786.7
10/05 08:00 24.8 84 19.12 21.9 20 33 1017.5 0 41.2 40.6 78.2 206.9 227.9 791.6
10/05 07:50 24.8 83 18.89 21.7 19 22 1017.4 0 40.7 40.1 77.1 204.0 224.3 779.1
10/05 07:40 24.6 84 18.91 21.7 22 37 1017.2 0 40.8 40.2 77.4 204.8 225.2 782.1
10/05 07:30 24.4 85 18.92 21.7 19 30 1017.1 0 40.8 40.3 77.7 205.4 225.9 784.7
10/05 07:20 24.4 85 18.92 21.7 20 30 1016.9 0 40.8 40.3 77.7 205.4 225.9 784.6
10/05 07:10 24.4 85 18.92 21.7 20 26 1016.7 0 40.8 40.3 77.6 205.4 225.9 784.5
10/05 07:00 24.5 85 19.02 21.8 20 37 1016.7 0 41.0 40.5 78.0 206.4 227.1 788.9
10/05 06:50 24.4 85 18.92 21.7 19 24 1016.6 0 40.8 40.3 77.6 205.3 225.9 784.4
10/05 06:40 24.3 86 19.03 21.8 17 22 1016.4 0 41.1 40.6 78.3 207.0 227.9 791.3
10/05 06:30 24.2 86 18.92 21.7 19 28 1016.4 0 40.9 40.4 77.8 205.9 226.4 786.4
10/05 06:20 24.3 86 19.03 21.8 20 28 1016.1 0 41.1 40.6 78.2 206.9 227.8 791.2
10/05 06:10 24.2 86 18.92 21.7 19 30 1015.9 0 40.9 40.4 77.8 205.8 226.4 786.1
10/05 06:00 24.1 86 18.82 21.6 19 32 1015.8 0 40.7 40.2 77.4 204.8 225.1 781.7
10/05 05:50 24.1 87 19.03 21.8 19 24 1015.5 0 41.1 40.6 78.4 207.4 228.3 793.0
10/05 05:40 24.1 87 19.03 21.8 20 28 1015.4 0 41.1 40.6 78.4 207.4 228.3 792.9
10/05 05:30 23.9 88 19.04 21.8 20 30 1015.6 0 41.1 40.8 78.7 208.1 229.1 795.7
10/05 05:20 23.9 88 19.04 21.8 15 20 1015.4 0 41.1 40.7 78.7 208.1 229.1 795.6
10/05 05:10 24 87 18.93 21.7 19 22 1015.2 0 40.9 40.5 78.0 206.3 227.0 788.4
10/05 05:00 23.8 88 18.93 21.7 19 35 1015.2 0 40.9 40.6 78.2 206.9 227.6 790.5
10/05 04:50 23.8 88 18.93 21.7 17 28 1015 0 40.9 40.6 78.2 206.9 227.6 790.4
10/05 04:40 23.9 88 19.04 21.8 19 22 1015 0 41.2 40.7 78.6 208.0 229.0 795.3
10/05 04:30 23.9 88 19.04 21.8 19 33 1015 0 41.2 40.7 78.6 208.0 229.0 795.3
10/05 04:20 23.7 89 19.04 21.8 17 24 1015 0 41.2 40.8 78.8 208.5 229.6 797.5
10/05 04:10 23.7 89 19.04 21.8 15 22 1014.9 0 41.2 40.8 78.8 208.5 229.6 797.4
10/05 04:00 23.7 88 18.82 21.6 20 30 1015 0 40.7 40.4 77.8 205.7 226.2 785.4
10/05 03:50 23.9 87 18.82 21.6 24 28 1015 0 40.7 40.3 77.6 205.2 225.6 783.3
10/05 03:40 24.1 86 18.82 21.6 22 28 1015.1 0 40.7 40.2 77.4 204.6 225.0 781.3
10/05 03:30 24.1 86 18.82 21.6 20 32 1015.1 0 40.7 40.2 77.4 204.6 225.0 781.3
10/05 03:20 24 87 18.93 21.7 19 28 1015.1 0 40.9 40.5 78.0 206.3 227.0 788.3
10/05 03:10 24 86 18.71 21.5 15 20 1015.1 0 40.4 40.0 77.0 203.5 223.6 776.4
10/05 03:00 23.9 87 18.82 21.6 17 33 1015.2 0 40.7 40.3 77.6 205.2 225.6 783.4
10/05 02:50 23.6 89 18.93 21.7 15 17 1015.1 0 40.9 40.7 78.4 207.4 228.2 792.5
10/05 02:40 23.6 88 18.72 21.5 15 19 1015.2 0 40.5 40.3 77.4 204.7 224.9 781.1
10/05 02:30 23.9 87 18.82 21.6 17 28 1015.4 0 40.7 40.3 77.6 205.2 225.6 783.6
10/05 02:20 23.7 88 18.82 21.6 11 15 1015.4 0 40.7 40.4 77.8 205.8 226.2 785.6
10/05 02:10 23.7 88 18.82 21.6 15 19 1015.3 0 40.7 40.4 77.8 205.8 226.2 785.6
10/05 02:00 23.7 87 18.61 21.4 13 20 1015.5 0 40.3 40.0 76.8 203.1 223.0 774.3
10/05 01:50 23.9 86 18.6 21.4 15 20 1015.5 0 40.2 39.9 76.6 202.5 222.2 771.7
10/05 01:40 23.7 87 18.61 21.4 20 26 1015.5 0 40.3 40.0 76.8 203.1 223.0 774.3
10/05 01:30 23.7 87 18.61 21.4 17 24 1015.8 0 40.2 40.0 76.8 203.2 223.0 774.4
10/05 01:20 23.7 87 18.61 21.4 13 17 1015.9 0 40.2 40.0 76.8 203.2 223.0 774.5
10/05 01:10 23.7 87 18.61 21.4 22 30 1016 0 40.2 40.0 76.8 203.2 223.0 774.5
10/05 01:00 23.7 86 18.39 21.2 13 22 1016.4 0 39.8 39.6 75.8 200.5 219.7 762.8
10/05 00:50 23.5 87 18.4 21.2 13 17 1016.4 0 39.8 39.8 76.1 201.1 220.4 765.4

Last Refresh: 10-May-2026 17:01:54

Bureau of Meteorology